Alfarata, Pennsylvania
Current Conditions -  °F | °C
As of 2:53 PM on Monday 24 Nov 2014 (Local Time) from KUNV Reporting Station
Scattered Clouds Scattered Clouds  
Wind Chill: 64°   Ceiling: Unl
Heat Index: 64°   Visibility: 10mi
Dew Point: 52°   Wind: 16mph
Humidity: 64%   Direction: 200°SSW
Pressure: 29.47"   Gusts: 23mph
Location:  40.7125°N, 77.3707°W
Report Text: KUNV 241953Z COR 20014G20KT 10SM SCT045 SCT095 18/11 A2947
Loading
Personal Weather Stations






























Interactive Weather Map New forecast layout! Learn more

10-Day Weather Forecast

Advertisements
Track Severe Weather on mobile